Time;durP1;ratioP1;P1;durP2;ratioP2;P2;SDS_P1;SDS_P2;PMS_P1;PMS_P2;Temp;Humidity;BMP_temperature;BMP_pressure;BME280_temperature;BME280_humidity;BME280_pressure;Samples;Min_cycle;Max_cycle;Signal;HPM_P1;HPM_P2
2021/04/21 00:01:37;;;;;;;8.90;7.03;;;;;;;21.47;24.75;94354.56;5116676;28;20043;-66
2021/04/21 00:04:05;;;;;;;8.20;7.35;;;;;;;21.28;24.59;94358.03;5116695;28;20043;-64
2021/04/21 00:06:34;;;;;;;7.88;6.88;;;;;;;21.30;25.18;94345.16;5115446;28;20070;-66
2021/04/21 00:09:03;;;;;;;7.93;7.13;;;;;;;21.04;25.94;94353.78;5087211;28;20043;-64
2021/04/21 00:11:32;;;;;;;8.02;7.22;;;;;;;21.24;25.74;94357.22;5112685;28;20059;-67
2021/04/21 00:13:59;;;;;;;7.25;6.53;;;;;;;21.17;25.62;94354.41;5116447;28;20051;-63
2021/04/21 00:16:28;;;;;;;9.68;7.20;;;;;;;21.01;25.81;94348.41;5115593;28;20050;-67
2021/04/21 00:18:56;;;;;;;7.78;6.90;;;;;;;21.08;25.26;94348.53;5098544;28;20047;-66
2021/04/21 00:21:24;;;;;;;7.80;7.00;;;;;;;21.14;25.34;94352.44;5098543;28;20039;-68
2021/04/21 00:23:51;;;;;;;8.25;6.85;;;;;;;21.07;25.55;94349.66;5098541;28;20043;-62
2021/04/21 00:26:21;;;;;;;9.23;6.82;;;;;;;21.00;25.47;94349.53;5115178;28;20051;-66
2021/04/21 00:28:51;;;;;;;6.55;5.63;;;;;;;21.07;25.06;94347.75;5098108;28;20059;-63
2021/04/21 00:31:18;;;;;;;6.80;5.70;;;;;;;21.24;25.36;94351.88;5115522;28;20044;-68
2021/04/21 00:33:53;;;;;;;8.85;6.90;;;;;;;21.19;25.47;94344.19;5097716;28;20172;-66
2021/04/21 00:36:21;;;;;;;8.27;6.82;;;;;;;21.22;25.08;94354.09;5096527;28;20059;-68
2021/04/21 00:38:50;;;;;;;8.57;7.63;;;;;;;21.32;25.24;94358.84;5078673;28;20052;-68
2021/04/21 00:41:40;;;;;;;8.00;6.20;;;;;;;21.16;25.34;94360.84;5116035;28;20082;-65
2021/04/21 00:44:16;;;;;;;7.70;6.70;;;;;;;21.05;25.23;94354.53;5098524;28;20051;-69
2021/04/21 00:46:50;;;;;;;7.65;6.40;;;;;;;21.04;25.51;94355.66;5110992;28;20379;-67
2021/04/21 00:49:26;;;;;;;7.15;5.85;;;;;;;21.34;25.23;94351.31;5075693;28;20056;-57
2021/04/21 00:52:06;;;;;;;6.40;5.65;;;;;;;21.24;25.43;94362.53;5075396;28;20051;-68
2021/04/21 00:54:40;;;;;;;11.10;6.63;;;;;;;21.28;25.41;94350.06;5091210;28;20045;-59
2021/04/21 00:57:22;;;;;;;7.07;6.15;;;;;;;21.32;25.55;94347.47;5083863;28;20481;-68
2021/04/21 01:00:09;;;;;;;8.00;6.05;;;;;;;21.34;25.44;94356.63;5096868;28;20058;-69
2021/04/21 01:03:15;;;;;;;7.25;6.03;;;;;;;21.04;25.03;94353.78;5082843;28;20043;-63
2021/04/21 01:06:05;;;;;;;7.38;6.03;;;;;;;21.35;25.20;94346.78;5097875;28;20066;-69
2021/04/21 01:08:41;;;;;;;7.05;6.35;;;;;;;21.40;25.21;94349.91;5105925;28;20370;-67
2021/04/21 01:11:22;;;;;;;7.28;5.88;;;;;;;21.02;25.30;94349.94;5061062;28;20039;-65
2021/04/21 01:14:03;;;;;;;10.30;5.72;;;;;;;21.28;25.12;94342.09;5097707;28;20051;-67
2021/04/21 01:16:32;;;;;;;5.97;4.38;;;;;;;21.28;24.15;94346.63;5115550;28;20054;-66
2021/04/21 01:19:17;;;;;;;5.13;3.85;;;;;;;21.78;23.52;94343.66;5077861;28;20036;-69
2021/04/21 01:21:48;;;;;;;4.90;4.40;;;;;;;21.51;23.73;94345.50;5094011;28;20442;-63
2021/04/21 01:24:50;;;;;;;5.32;4.78;;;;;;;21.30;25.05;94349.69;5095236;28;20063;-70
2021/04/21 01:27:20;;;;;;;6.90;6.20;;;;;;;21.25;25.46;94353.44;5095108;28;20051;-68
2021/04/21 01:29:50;;;;;;;6.50;5.90;;;;;;;21.05;25.70;94362.53;5119689;28;20040;-68
2021/04/21 01:32:29;;;;;;;7.68;6.63;;;;;;;21.16;25.21;94352.88;5101732;28;20051;-64
2021/04/21 01:34:57;;;;;;;9.02;6.75;;;;;;;21.28;25.28;94358.03;5101586;28;20047;-57
2021/04/21 01:37:33;;;;;;;7.60;6.78;;;;;;;20.97;26.07;94358.97;5118570;28;20051;-57
2021/04/21 01:40:19;;;;;;;8.05;7.22;;;;;;;21.12;25.77;94366.09;5119606;28;20043;-60
2021/04/21 01:42:51;;;;;;;9.05;8.05;;;;;;;21.08;25.65;94364.47;5102530;28;20461;-66
2021/04/21 01:45:23;;;;;;;10.05;7.40;;;;;;;21.02;26.18;94355.25;5119603;28;20059;-68
2021/04/21 01:47:51;;;;;;;9.38;7.80;;;;;;;20.93;26.43;94352.81;5101170;28;20059;-69
2021/04/21 01:50:19;;;;;;;8.25;7.03;;;;;;;20.99;26.22;94356.72;5119343;28;20051;-69
2021/04/21 01:52:58;;;;;;;9.23;7.88;;;;;;;20.75;26.20;94351.72;5102511;28;20344;-56
2021/04/21 01:55:37;;;;;;;9.25;7.57;;;;;;;20.59;25.88;94339.28;5077616;28;20051;-69
2021/04/21 01:58:32;;;;;;;9.02;7.13;;;;;;;20.91;25.53;94361.16;5088828;28;20051;-69
2021/04/21 02:01:11;;;;;;;8.77;6.82;;;;;;;20.99;25.33;94362.03;5119187;28;20058;-69
2021/04/21 02:03:41;;;;;;;9.77;6.93;;;;;;;20.89;25.55;94352.75;5119033;28;20048;-66
2021/04/21 02:06:14;;;;;;;9.75;7.28;;;;;;;20.93;25.54;94361.56;5100555;28;20070;-61
2021/04/21 02:08:43;;;;;;;;;;;;;;;20.92;25.67;94360.03;5101395;28;20047;-70
2021/04/21 02:11:25;;;;;;;7.95;7.15;;;;;;;20.94;25.57;94360.44;5101462;28;19918;-68
2021/04/21 02:14:11;;;;;;;8.77;7.30;;;;;;;20.89;25.80;94358.06;5119311;28;20055;-64
2021/04/21 02:17:09;;;;;;;8.20;7.15;;;;;;;21.00;26.17;94368.91;5118735;28;20465;-69
2021/04/21 02:19:47;;;;;;;8.85;7.70;;;;;;;20.99;25.89;94366.59;5118705;28;20039;-68
2021/04/21 02:22:34;;;;;;;8.75;7.60;;;;;;;20.84;26.40;94368.22;5118398;28;20393;-69
2021/04/21 02:25:20;;;;;;;8.57;7.40;;;;;;;20.81;26.47;94374.97;5079736;28;20048;-56
2021/04/21 02:28:11;;;;;;;8.55;7.25;;;;;;;20.84;26.26;94369.00;5108192;27;20044;-68
2021/04/21 02:31:02;;;;;;;9.73;7.30;;;;;;;20.72;26.08;94374.44;5118823;28;20385;-53
2021/04/21 02:34:19;;;;;;;8.35;7.07;;;;;;;20.81;25.84;94382.94;5118792;28;20043;-52
2021/04/21 02:36:50;;;;;;;9.05;7.85;;;;;;;20.84;25.80;94382.28;5099917;28;20047;-50
2021/04/21 02:39:42;;;;;;;9.85;7.82;;;;;;;20.59;26.04;94396.94;5099394;28;20438;-52
2021/04/21 02:42:42;;;;;;;9.98;7.45;;;;;;;20.72;25.85;94379.75;5118017;28;20047;-50
2021/04/21 02:45:14;;;;;;;9.77;7.85;;;;;;;20.50;26.03;94383.84;5100058;28;20058;-52
2021/04/21 02:47:55;;;;;;;9.07;7.18;;;;;;;20.79;25.53;94379.09;5099598;28;20056;-52
2021/04/21 02:50:36;;;;;;;10.27;7.53;;;;;;;20.49;26.06;94389.50;5100062;28;20043;-50
2021/04/21 02:53:28;;;;;;;8.82;6.72;;;;;;;20.67;25.87;94388.00;5100200;28;20050;-49
2021/04/21 02:56:14;;;;;;;10.50;7.13;;;;;;;20.45;26.33;94391.31;5099901;28;20048;-51
2021/04/21 02:59:04;;;;;;;10.55;7.15;;;;;;;20.57;25.99;94399.94;5104766;28;20047;-52
2021/04/21 03:01:49;;;;;;;9.32;7.90;;;;;;;20.43;26.22;94393.56;5117772;28;20082;-50
2021/04/21 03:04:32;;;;;;;10.25;8.43;;;;;;;20.36;26.71;94393.38;5117575;28;20067;-50
2021/04/21 03:07:03;;;;;;;10.73;9.07;;;;;;;20.53;26.38;94387.69;5099105;28;20454;-51
2021/04/21 03:09:47;;;;;;;13.00;9.38;;;;;;;20.67;26.17;94388.00;5059400;28;20044;-65
2021/04/21 03:12:17;;;;;;;12.55;8.98;;;;;;;20.60;26.42;94385.97;5060199;28;20052;-58
2021/04/21 03:14:47;;;;;;;10.90;8.38;;;;;;;20.54;26.13;94378.59;5079610;28;20048;-62
2021/04/21 03:17:14;;;;;;;11.13;8.30;;;;;;;20.47;26.37;94389.84;5079365;28;20040;-51
2021/04/21 03:20:13;;;;;;;10.18;7.60;;;;;;;20.56;25.81;94385.13;5079649;28;20044;-51
2021/04/21 03:22:41;;;;;;;9.43;7.85;;;;;;;20.70;25.83;94394.50;5079587;28;20044;-52
2021/04/21 03:25:09;;;;;;;11.30;8.48;;;;;;;20.70;25.79;94392.59;5079545;28;20394;-50
2021/04/21 03:27:41;;;;;;;12.75;8.07;;;;;;;20.83;25.59;94396.69;5082336;28;20172;-50
2021/04/21 03:30:12;;;;;;;10.55;8.27;;;;;;;20.42;26.48;94398.09;5117299;28;20370;-49
2021/04/21 03:33:02;;;;;;;11.60;8.45;;;;;;;20.40;25.68;94396.88;5117387;28;20445;-52
2021/04/21 03:35:30;;;;;;;12.25;8.50;;;;;;;20.63;25.64;94403.88;5095915;28;20134;-61
2021/04/21 03:38:04;;;;;;;11.68;8.88;;;;;;;20.43;26.04;94404.19;5081602;28;20457;-60
2021/04/21 03:40:31;;;;;;;11.00;8.00;;;;;;;20.38;26.41;94407.09;5097205;28;20047;-51
2021/04/21 03:42:59;;;;;;;9.85;8.10;;;;;;;20.50;26.02;94405.09;5096680;28;20044;-50
2021/04/21 03:45:27;;;;;;;10.35;8.30;;;;;;;20.45;26.58;94405.38;5078690;28;20078;-51
2021/04/21 03:47:55;;;;;;;11.07;8.00;;;;;;;20.36;25.90;94414.63;5098605;28;20051;-51
2021/04/21 03:50:23;;;;;;;9.02;8.13;;;;;;;20.41;26.12;94403.75;5085373;28;20056;-51
2021/04/21 03:52:58;;;;;;;12.40;8.35;;;;;;;20.50;25.73;94396.34;5076393;28;20049;-49
2021/04/21 03:55:25;;;;;;;12.48;8.35;;;;;;;20.78;26.06;94407.56;5076263;28;20795;-51
2021/04/21 03:57:58;;;;;;;11.05;8.25;;;;;;;20.55;26.86;94418.09;5081211;28;20044;-51
2021/04/21 04:00:27;;;;;;;11.25;8.70;;;;;;;20.60;25.97;94414.41;5117558;28;20047;-66
2021/04/21 04:02:58;;;;;;;13.23;9.45;;;;;;;20.58;25.69;94421.97;5082119;28;20052;-67
2021/04/21 04:06:07;;;;;;;12.85;9.40;;;;;;;20.91;25.53;94422.25;5090506;28;20326;-58
2021/04/21 04:08:46;;;;;;;8.45;7.32;;;;;;;20.92;25.38;94426.47;5070599;28;20071;-68
2021/04/21 04:11:15;;;;;;;9.65;6.65;;;;;;;21.00;25.06;94429.25;5087516;28;20052;-62
2021/04/21 04:13:54;;;;;;;6.57;5.88;;;;;;;20.88;25.39;94432.81;5090703;28;20119;-54
2021/04/21 04:16:23;;;;;;;6.50;5.47;;;;;;;20.90;24.97;94438.56;5109680;28;20048;-69
2021/04/21 04:18:52;;;;;;;8.50;6.20;;;;;;;21.13;24.96;94428.00;5061725;28;20036;-68
2021/04/21 04:21:19;;;;;;;7.78;6.70;;;;;;;21.12;25.12;94442.41;5098437;28;20040;-55
2021/04/21 04:23:49;;;;;;;10.65;7.30;;;;;;;21.06;25.44;94438.47;5116607;28;20047;-69
2021/04/21 04:26:16;;;;;;;12.02;8.05;;;;;;;20.90;25.64;94444.63;5098331;28;20059;-68
2021/04/21 04:28:44;;;;;;;9.45;7.85;;;;;;;20.89;25.61;94443.09;5097199;28;20040;-70
2021/04/21 04:31:12;;;;;;;10.88;7.82;;;;;;;20.84;25.96;94450.59;5116317;28;20050;-55
2021/04/21 04:33:43;;;;;;;9.20;8.20;;;;;;;20.97;26.20;94459.94;5098590;28;20043;-59
2021/04/21 04:36:10;;;;;;;9.68;7.22;;;;;;;20.88;26.22;94459.41;5097505;28;20062;-68
2021/04/21 04:38:38;;;;;;;10.38;8.18;;;;;;;21.04;25.98;94454.75;5087694;28;20036;-54
2021/04/21 04:41:05;;;;;;;9.15;8.20;;;;;;;20.71;26.14;94459.78;5077626;28;20048;-53
2021/04/21 04:43:34;;;;;;;11.10;8.70;;;;;;;20.86;25.93;94467.72;5095287;28;20055;-54
2021/04/21 04:46:02;;;;;;;12.52;8.95;;;;;;;20.72;26.13;94459.44;5069652;28;20055;-56
2021/04/21 04:48:44;;;;;;;15.13;10.13;;;;;;;20.65;26.47;94467.25;5077331;28;20044;-54
2021/04/21 04:51:12;;;;;;;12.30;10.23;;;;;;;20.74;26.23;94462.50;5077847;28;20048;-55
2021/04/21 04:53:40;;;;;;;12.52;10.70;;;;;;;20.67;26.57;94467.69;5095657;28;20055;-53
2021/04/21 04:56:07;;;;;;;12.85;10.10;;;;;;;20.49;27.13;94469.16;5097821;28;20082;-52
2021/04/21 04:58:36;;;;;;;13.48;9.23;;;;;;;20.66;26.41;94482.06;5093185;28;20473;-56
2021/04/21 05:01:05;;;;;;;13.48;9.98;;;;;;;20.48;27.09;94486.22;5077638;28;20043;-53
2021/04/21 05:03:49;;;;;;;13.82;9.77;;;;;;;20.75;26.61;94485.31;5115850;28;20043;-52
2021/04/21 05:06:20;;;;;;;10.73;9.48;;;;;;;20.84;26.91;94480.56;5097278;28;20063;-54
2021/04/21 05:08:52;;;;;;;12.32;9.10;;;;;;;21.16;26.95;94488.44;5082143;28;20055;-55
2021/04/21 05:11:21;;;;;;;11.02;8.85;;;;;;;21.20;26.80;94483.94;5057592;28;20044;-56
2021/04/21 05:13:50;;;;;;;10.35;8.65;;;;;;;21.36;26.73;94482.03;5075172;28;20052;-53
2021/04/21 05:16:56;;;;;;;14.00;8.70;;;;;;;21.63;26.78;94488.22;5074931;28;20052;-55
2021/04/21 05:19:45;;;;;;;10.57;8.38;;;;;;;21.80;25.96;94484.31;5090179;28;20040;-55
2021/04/21 05:22:42;;;;;;;9.23;8.23;;;;;;;21.63;26.57;94495.44;5115561;28;20050;-56
2021/04/21 05:25:43;;;;;;;9.73;7.28;;;;;;;21.54;27.35;94495.63;5115659;28;20044;-54
2021/04/21 05:28:43;;;;;;;9.55;8.05;;;;;;;21.47;27.03;94498.16;5115103;28;20176;-56
2021/04/21 05:32:05;;;;;;;8.88;7.20;;;;;;;21.74;27.12;94491.06;5115472;28;20077;-56
2021/04/21 05:35:17;;;;;;;9.18;6.85;;;;;;;21.62;27.13;94488.56;5110359;28;20047;-55
2021/04/21 05:38:30;;;;;;;8.73;7.38;;;;;;;21.73;27.27;94494.84;5053060;28;20044;-55
2021/04/21 05:41:00;;;;;;;8.40;6.90;;;;;;;21.93;26.74;94493.69;5115572;28;20350;-53
2021/04/21 05:44:05;;;;;;;7.65;6.50;;;;;;;21.68;26.85;94500.47;5115488;28;20039;-54
2021/04/21 05:47:03;;;;;;;8.18;6.60;;;;;;;21.76;27.01;94504.78;5115270;28;20046;-55
2021/04/21 05:50:03;;;;;;;7.95;7.15;;;;;;;21.85;27.22;94492.78;5097175;28;20055;-54
2021/04/21 05:52:48;;;;;;;8.30;7.40;;;;;;;21.61;27.58;94500.34;5097467;28;20047;-55
2021/04/21 05:55:37;;;;;;;9.55;7.57;;;;;;;21.82;27.14;94498.03;5115234;28;20465;-57
2021/04/21 05:58:31;;;;;;;8.48;7.22;;;;;;;21.86;27.14;94506.88;5115015;28;20067;-54
2021/04/21 06:01:16;;;;;;;7.63;6.82;;;;;;;21.59;27.33;94505.97;5115338;28;20058;-53
2021/04/21 06:03:49;;;;;;;8.38;6.55;;;;;;;21.77;27.46;94507.09;5097005;28;20044;-56
2021/04/21 06:06:17;;;;;;;8.55;6.45;;;;;;;22.32;26.42;94509.53;5096945;28;20055;-54
2021/04/21 06:08:44;;;;;;;7.93;6.60;;;;;;;22.60;26.33;94509.22;5104221;28;20431;-55
2021/04/21 06:11:24;;;;;;;7.97;6.43;;;;;;;22.99;25.82;94515.13;5074666;28;20055;-54
2021/04/21 06:13:55;;;;;;;7.72;5.45;;;;;;;23.56;24.15;94505.94;5076466;28;20044;-55
2021/04/21 06:16:23;;;;;;;7.35;5.60;;;;;;;23.56;24.54;94513.19;5078009;28;20048;-55
2021/04/21 06:18:57;;;;;;;9.77;5.90;;;;;;;23.31;24.62;94513.63;5086817;28;20040;-54
2021/04/21 06:21:26;;;;;;;6.22;5.63;;;;;;;23.60;23.59;94524.66;5098388;28;20043;-56
2021/04/21 06:23:54;;;;;;;8.60;5.38;;;;;;;23.41;24.28;94520.22;5098443;28;20048;-55
2021/04/21 06:26:25;;;;;;;7.35;5.60;;;;;;;23.36;23.46;94518.63;5098183;28;20051;-55
2021/04/21 06:29:08;;;;;;;6.57;5.20;;;;;;;23.11;24.03;94517.56;5117996;28;20051;-55
2021/04/21 06:31:38;;;;;;;8.02;5.63;;;;;;;23.19;24.10;94513.88;5117419;28;20074;-53
2021/04/21 06:34:08;;;;;;;6.72;5.22;;;;;;;23.08;24.05;94518.28;5118464;28;20052;-55
2021/04/21 06:36:40;;;;;;;6.30;5.55;;;;;;;23.33;23.49;94519.38;5117824;28;20051;-54
2021/04/21 06:39:09;;;;;;;8.45;5.00;;;;;;;23.34;22.88;94520.91;5118519;28;20070;-54
2021/04/21 06:41:36;;;;;;;7.90;5.68;;;;;;;23.18;24.11;94524.91;5116168;28;20050;-55
2021/04/21 06:44:04;;;;;;;8.68;5.82;;;;;;;23.25;24.71;94517.75;5118252;28;20044;-54
2021/04/21 06:46:32;;;;;;;6.40;5.28;;;;;;;23.45;24.62;94525.59;5118157;28;20043;-55
2021/04/21 06:49:02;;;;;;;6.22;5.63;;;;;;;23.45;24.41;94525.59;5118103;28;20472;-55
2021/04/21 06:51:32;;;;;;;9.27;5.75;;;;;;;22.85;25.14;94528.25;5117826;28;20048;-54
2021/04/21 06:54:00;;;;;;;8.35;6.65;;;;;;;22.96;25.10;94526.50;5118099;28;20051;-54
2021/04/21 06:56:29;;;;;;;6.82;5.68;;;;;;;23.01;25.15;94532.28;5118061;28;20058;-55
2021/04/21 06:58:56;;;;;;;7.80;6.32;;;;;;;23.33;25.19;94529.25;5117979;28;20044;-54
2021/04/21 07:01:25;;;;;;;8.32;5.68;;;;;;;23.13;24.75;94535.84;5117974;28;20051;-61
2021/04/21 07:04:14;;;;;;;6.78;5.50;;;;;;;23.42;24.81;94536.97;5118049;28;20054;-54
2021/04/21 07:06:43;;;;;;;6.00;5.22;;;;;;;23.60;24.33;94538.00;5116990;28;20059;-54
2021/04/21 07:09:23;;;;;;;11.60;5.55;;;;;;;23.20;24.69;94544.75;5118036;28;20055;-56
2021/04/21 07:11:58;;;;;;;8.30;5.53;;;;;;;23.79;24.65;94534.41;5111297;28;20044;-54
2021/04/21 07:14:28;;;;;;;8.73;5.80;;;;;;;24.69;23.90;94548.19;5059380;28;20044;-57
2021/04/21 07:16:57;;;;;;;7.45;4.90;;;;;;;25.12;22.46;94549.25;5092787;28;20059;-55
2021/04/21 07:19:25;;;;;;;6.10;5.03;;;;;;;25.37;22.87;94540.59;5077074;28;20451;-57
2021/04/21 07:21:53;;;;;;;6.65;5.05;;;;;;;25.34;21.98;94541.34;5079899;28;20055;-56
2021/04/21 07:24:31;;;;;;;5.32;4.60;;;;;;;25.38;23.06;94539.44;5079322;28;20044;-56
2021/04/21 07:26:58;;;;;;;7.22;3.88;;;;;;;25.43;22.08;94536.41;5096997;28;20431;-55
2021/04/21 07:29:26;;;;;;;7.43;4.63;;;;;;;25.60;22.03;94541.06;5077835;28;20051;-56
2021/04/21 07:31:54;;;;;;;5.03;4.43;;;;;;;25.43;21.95;94547.09;5099126;28;20050;-55
2021/04/21 07:34:31;;;;;;;5.07;4.55;;;;;;;25.35;21.67;94545.56;5117237;28;20048;-55
2021/04/21 07:36:59;;;;;;;6.70;5.15;;;;;;;24.91;22.54;94554.44;5116451;28;20059;-54
2021/04/21 07:39:37;;;;;;;6.15;4.43;;;;;;;24.50;22.59;94546.53;5116158;28;20046;-54
2021/04/21 07:42:14;;;;;;;14.68;12.40;;;;;;;24.30;22.75;94550.56;5111375;28;20044;-54
2021/04/21 07:44:55;;;;;;;7.60;6.15;;;;;;;24.07;23.27;94561.38;5093592;28;20048;-57
2021/04/21 07:47:26;;;;;;;34.15;25.20;;;;;;;23.87;23.42;94557.34;5076301;28;20048;-56
2021/04/21 07:49:58;;;;;;;9.45;5.90;;;;;;;23.98;23.45;94547.56;5076640;28;20048;-55
2021/04/21 07:52:28;;;;;;;7.03;4.78;;;;;;;24.02;23.00;94551.03;5083293;28;20047;-56
2021/04/21 07:55:17;;;;;;;7.93;4.90;;;;;;;24.08;23.22;94551.47;5096427;28;20056;-55
2021/04/21 07:57:56;;;;;;;4.90;4.40;;;;;;;24.24;23.54;94547.44;5096401;28;20446;-56
2021/04/21 08:00:28;;;;;;;7.30;4.65;;;;;;;24.66;22.46;94548.16;5096490;28;20039;-54
2021/04/21 08:02:56;;;;;;;6.00;4.70;;;;;;;24.96;22.67;94553.31;5096264;28;20186;-55
2021/04/21 08:05:24;;;;;;;5.25;4.13;;;;;;;25.08;22.82;94548.47;5095667;28;20066;-55
2021/04/21 08:07:55;;;;;;;5.88;4.38;;;;;;;25.43;21.38;94550.53;5077856;28;20075;-53
2021/04/21 08:10:23;;;;;;;4.95;3.90;;;;;;;25.12;22.08;94549.25;5075987;28;20079;-53
2021/04/21 08:12:52;;;;;;;5.25;4.28;;;;;;;25.82;20.98;94547.28;5084621;28;20052;-53
2021/04/21 08:15:25;;;;;;;5.05;3.92;;;;;;;25.83;21.46;94548.06;5074776;28;20044;-55
2021/04/21 08:18:05;;;;;;;4.63;2.95;;;;;;;25.86;20.10;94547.28;5081395;28;20044;-55
2021/04/21 08:20:34;;;;;;;3.40;3.00;;;;;;;25.73;18.75;94542.28;5095689;28;20040;-57
2021/04/21 08:23:03;;;;;;;6.72;3.40;;;;;;;25.46;20.44;94547.13;5096110;28;20052;-54
2021/04/21 08:25:31;;;;;;;4.75;3.35;;;;;;;25.14;20.25;94560.34;5095904;28;20048;-55
2021/04/21 08:27:58;;;;;;;4.10;3.10;;;;;;;25.00;20.08;94556.84;5088481;28;20056;-56
2021/04/21 08:30:27;;;;;;;4.25;3.28;;;;;;;24.66;20.37;94553.50;5090962;28;20055;-59
2021/04/21 08:32:54;;;;;;;8.07;6.38;;;;;;;24.70;21.30;94548.94;5095919;28;20048;-54
2021/04/21 08:35:22;;;;;;;16.05;12.77;;;;;;;25.08;19.90;94551.16;5095444;28;20052;-54
2021/04/21 08:37:49;;;;;;;9.88;7.75;;;;;;;25.65;20.64;94551.41;5097546;28;20046;-54
2021/04/21 08:40:20;;;;;;;7.80;6.40;;;;;;;26.41;19.27;94543.19;5096601;28;20048;-55
2021/04/21 08:42:55;;;;;;;4.70;2.72;;;;;;;26.54;18.25;94542.81;5075462;28;20056;-57
2021/04/21 08:45:22;;;;;;;3.63;2.60;;;;;;;27.03;17.03;94536.66;5075181;28;20055;-55
2021/04/21 08:47:50;;;;;;;2.90;2.60;;;;;;;27.67;18.14;94539.16;5057991;28;20048;-56
2021/04/21 08:50:18;;;;;;;2.90;2.30;;;;;;;27.07;16.41;94529.38;5088846;28;20051;-53
2021/04/21 08:52:55;;;;;;;3.60;2.20;;;;;;;26.98;16.10;94529.75;5095604;28;20418;-55
2021/04/21 08:55:25;;;;;;;2.35;1.90;;;;;;;26.44;16.40;94522.91;5078159;28;20442;-57
2021/04/21 08:57:53;;;;;;;3.45;2.28;;;;;;;26.78;18.03;94520.56;5076323;28;20048;-55
2021/04/21 09:00:21;;;;;;;3.15;2.03;;;;;;;26.23;16.72;94523.63;5088679;28;20446;-56
2021/04/21 09:02:48;;;;;;;2.42;2.13;;;;;;;26.25;16.91;94521.31;5095557;28;20126;-54
2021/04/21 09:05:17;;;;;;;3.45;2.20;;;;;;;25.85;16.20;94513.63;5095205;28;20067;-54
2021/04/21 09:07:46;;;;;;;2.85;2.10;;;;;;;25.75;16.36;94515.13;5102412;28;20047;-57
2021/04/21 09:10:15;;;;;;;2.10;1.90;;;;;;;25.86;16.10;94515.16;5102092;28;20044;-55
2021/04/21 09:12:42;;;;;;;3.92;2.70;;;;;;;26.03;15.85;94520.56;5095319;28;20048;-55
2021/04/21 09:15:11;;;;;;;2.40;2.15;;;;;;;26.27;16.47;94513.66;5073562;22;20057;-55
2021/04/21 09:17:47;;;;;;;3.60;2.38;;;;;;;25.31;17.94;94518.03;5018115;28;20046;-55
2021/04/21 09:20:21;;;;;;;2.88;2.58;;;;;;;25.36;18.61;94509.63;5015283;28;20038;-54
2021/04/21 09:23:13;;;;;;;3.55;3.10;;;;;;;25.58;18.54;94519.25;5015416;28;20444;-53
2021/04/21 09:25:53;;;;;;;37.10;29.60;;;;;;;25.11;18.97;94520.97;5014677;28;20046;-55
2021/04/21 09:28:22;;;;;;;7.22;6.10;;;;;;;25.38;19.52;94518.81;5015496;28;20054;-54
2021/04/21 09:30:56;;;;;;;4.38;3.20;;;;;;;25.03;20.41;94530.13;4997889;28;20057;-55
2021/04/21 09:33:27;;;;;;;5.63;4.70;;;;;;;25.21;20.42;94530.19;5014579;28;20457;-54
2021/04/21 09:35:55;;;;;;;4.20;3.53;;;;;;;25.18;20.39;94552.34;5013887;28;20053;-54
2021/04/21 09:38:24;;;;;;;4.43;2.40;;;;;;;24.66;19.68;94538.22;5015150;28;20061;-56
2021/04/21 09:41:22;;;;;;;2.50;1.65;;;;;;;24.07;19.89;94539.25;5015304;28;20049;-54
2021/04/21 09:43:49;;;;;;;2.05;1.60;;;;;;;23.99;20.30;94557.09;5011594;28;20050;-54
2021/04/21 09:46:18;;;;;;;2.65;1.88;;;;;;;23.35;22.46;94559.78;5029185;28;20050;-54
2021/04/21 09:48:46;;;;;;;2.72;1.80;;;;;;;23.27;23.86;94568.81;5036848;28;20041;-56
2021/04/21 09:51:17;;;;;;;2.42;1.85;;;;;;;22.92;24.60;94563.78;5038727;28;20049;-55
2021/04/21 09:53:55;;;;;;;3.22;1.80;;;;;;;22.93;23.94;94564.56;5038632;28;20464;-55
2021/04/21 09:56:36;;;;;;;2.90;1.80;;;;;;;23.26;24.13;94569.19;5031151;28;20052;-55
2021/04/21 09:59:04;;;;;;;1.98;1.45;;;;;;;23.02;24.74;94562.38;5001476;28;20060;-55
2021/04/21 10:01:35;;;;;;;2.22;1.60;;;;;;;23.22;23.69;94560.38;5018548;28;20073;-54
2021/04/21 10:04:07;;;;;;;3.28;1.45;;;;;;;23.29;22.63;94566.56;5023712;28;20061;-54
2021/04/21 10:06:34;;;;;;;5.50;3.50;;;;;;;23.51;22.96;94572.94;5024756;28;20052;-56
2021/04/21 10:09:02;;;;;;;34.63;26.33;;;;;;;23.82;21.68;94566.47;5038283;28;20054;-53
2021/04/21 10:11:29;;;;;;;5.90;4.75;;;;;;;23.95;22.69;94570.44;5023982;28;20073;-54
2021/04/21 10:13:58;;;;;;;2.05;1.70;;;;;;;24.21;22.14;94568.78;5018530;28;20054;-57
2021/04/21 10:16:25;;;;;;;1.85;1.58;;;;;;;24.21;22.40;94571.44;5029645;28;20489;-57
2021/04/21 10:18:53;;;;;;;2.22;1.90;;;;;;;24.30;23.78;94558.56;5018392;28;20045;-55
2021/04/21 10:21:21;;;;;;;4.18;1.90;;;;;;;24.51;22.60;94569.44;5018424;28;20053;-55
2021/04/21 10:23:49;;;;;;;2.53;1.60;;;;;;;25.58;21.03;94564.78;5018359;28;20053;-55
2021/04/21 10:26:18;;;;;;;2.35;1.60;;;;;;;25.93;20.47;94553.44;5017837;28;20441;-59
2021/04/21 10:28:46;;;;;;;1.83;1.02;;;;;;;25.93;19.53;94541.94;5018088;28;20117;-58
2021/04/21 10:31:19;;;;;;;1.48;0.90;;;;;;;25.09;20.62;94560.69;5017227;28;20046;-56
2021/04/21 10:33:51;;;;;;;4.38;3.72;;;;;;;25.30;19.69;94548.59;5018141;28;20053;-54
2021/04/21 10:36:18;;;;;;;15.65;11.25;;;;;;;25.42;20.56;94556.28;5017572;28;20041;-54
2021/04/21 10:38:46;;;;;;;8.77;5.18;;;;;;;25.55;20.87;94551.38;5018104;28;20053;-55
2021/04/21 10:41:36;;;;;;;2.50;1.70;;;;;;;26.14;19.42;94552.72;5017991;28;20038;-55
2021/04/21 10:44:19;;;;;;;3.13;1.65;;;;;;;25.80;19.18;94550.34;5020119;28;20064;-55
2021/04/21 10:47:04;;;;;;;2.00;1.45;;;;;;;25.66;19.04;94555.63;5029964;28;20046;-55
2021/04/21 10:49:43;;;;;;;2.60;1.48;;;;;;;25.72;20.11;94542.66;5017706;28;20050;-54
2021/04/21 10:52:15;;;;;;;1.35;1.02;;;;;;;25.29;19.18;94553.19;5017650;28;20053;-54
2021/04/21 10:54:43;;;;;;;1.20;0.80;;;;;;;25.25;19.40;94554.31;5017556;28;20057;-55
2021/04/21 10:57:23;;;;;;;2.13;0.90;;;;;;;25.13;19.88;94561.50;5017420;28;20046;-54
2021/04/21 11:00:12;;;;;;;1.70;1.33;;;;;;;25.41;19.17;94565.44;5017320;28;20338;-54
2021/04/21 11:02:45;;;;;;;2.10;1.38;;;;;;;24.76;19.46;94558.19;5017575;28;20046;-54
2021/04/21 11:05:19;;;;;;;2.40;1.88;;;;;;;25.09;19.43;94552.69;5017258;28;20053;-55
2021/04/21 11:08:00;;;;;;;3.90;2.55;;;;;;;25.61;19.02;94553.31;5014414;28;20053;-56
2021/04/21 11:10:57;;;;;;;6.22;3.63;;;;;;;25.65;18.77;94548.72;5037152;28;20058;-55
2021/04/21 11:13:24;;;;;;;3.35;2.00;;;;;;;25.99;18.78;94540.44;5023315;28;20056;-55
2021/04/21 11:15:54;;;;;;;3.38;1.63;;;;;;;26.33;18.70;94549.69;5029228;28;20054;-55
2021/04/21 11:18:25;;;;;;;1.50;1.20;;;;;;;25.24;19.78;94534.78;5017043;28;20049;-54
2021/04/21 11:21:22;;;;;;;2.30;1.50;;;;;;;25.16;21.60;94539.34;5016873;28;20049;-56
2021/04/21 11:23:56;;;;;;;2.67;2.10;;;;;;;26.76;18.63;94522.09;4987626;28;20058;-56
2021/04/21 11:26:27;;;;;;;3.33;2.05;;;;;;;26.81;18.42;94538.59;5017120;28;20054;-54
2021/04/21 11:29:24;;;;;;;2.47;1.40;;;;;;;26.98;17.39;94535.09;5016887;28;20042;-55
2021/04/21 11:31:52;;;;;;;2.03;1.73;;;;;;;26.70;17.46;94540.50;4996211;28;20054;-56
2021/04/21 11:34:29;;;;;;;2.30;1.73;;;;;;;26.59;17.58;94526.34;5016700;28;20053;-54
2021/04/21 11:37:10;;;;;;;2.03;1.10;;;;;;;26.52;16.94;94529.03;5016080;28;20050;-54
2021/04/21 11:39:40;;;;;;;3.20;2.15;;;;;;;26.53;17.73;94519.81;5016688;28;20046;-56
2021/04/21 11:42:17;;;;;;;3.53;1.70;;;;;;;27.19;17.54;94512.84;5016805;28;20060;-58
2021/04/21 11:44:51;;;;;;;2.22;1.55;;;;;;;26.49;16.94;94519.06;5019408;28;20053;-55
2021/04/21 11:47:42;;;;;;;2.47;1.50;;;;;;;26.64;16.73;94512.56;5036505;28;20064;-56
2021/04/21 11:50:17;;;;;;;3.05;2.10;;;;;;;26.65;17.54;94522.91;5035528;28;20040;-60
2021/04/21 11:53:06;;;;;;;2.78;2.05;;;;;;;26.12;18.28;94523.63;5035530;28;20049;-56
2021/04/21 11:55:47;;;;;;;2.15;1.85;;;;;;;26.21;17.81;94515.19;5016423;28;20453;-58
2021/04/21 11:58:27;;;;;;;3.40;2.03;;;;;;;26.32;18.20;94509.88;5016555;28;20334;-54
2021/04/21 12:01:01;;;;;;;3.03;1.70;;;;;;;26.34;17.34;94513.72;5016486;28;20045;-54
2021/04/21 12:03:35;;;;;;;2.15;1.73;;;;;;;26.09;17.88;94518.25;5016732;28;20061;-55
2021/04/21 12:06:13;;;;;;;4.35;1.40;;;;;;;26.22;17.20;94511.38;5016295;28;20050;-55
2021/04/21 12:08:46;;;;;;;2.20;2.00;;;;;;;26.04;17.81;94522.09;5016247;28;20058;-54
2021/04/21 12:11:14;;;;;;;4.05;3.10;;;;;;;26.29;18.50;94516.00;5015259;28;20449;-55